createdAt,value
2022-08-17T00:01:55.332Z,19.39
2022-08-17T00:04:22.666Z,19.39
2022-08-17T00:06:50.035Z,19.39
2022-08-17T00:09:18.648Z,19.38
2022-08-17T00:12:42.082Z,19.37
2022-08-17T00:14:45.040Z,19.37
2022-08-17T00:17:11.720Z,19.40
2022-08-17T00:19:44.179Z,19.38
2022-08-17T00:22:31.502Z,19.36
2022-08-17T00:25:15.181Z,19.33
2022-08-17T00:27:42.156Z,19.30
2022-08-17T00:30:10.733Z,19.29
2022-08-17T00:33:13.569Z,19.27
2022-08-17T00:36:00.485Z,19.24
2022-08-17T00:38:41.800Z,19.22
2022-08-17T00:41:25.473Z,19.19
2022-08-17T00:44:05.090Z,19.18
2022-08-17T00:46:40.485Z,19.16
2022-08-17T00:49:20.929Z,19.14
2022-08-17T00:52:00.425Z,19.13
2022-08-17T00:54:41.859Z,19.12
2022-08-17T00:57:17.440Z,19.09
2022-08-17T01:00:02.742Z,19.08
2022-08-17T01:02:41.465Z,19.08
2022-08-17T01:05:12.928Z,19.06
2022-08-17T01:07:43.518Z,19.00
2022-08-17T01:10:58.269Z,18.89
2022-08-17T01:13:02.723Z,18.85
2022-08-17T01:15:29.957Z,18.83
2022-08-17T01:17:59.920Z,18.79
2022-08-17T01:20:42.643Z,18.76
2022-08-17T01:23:25.847Z,18.74
2022-08-17T01:26:14.920Z,18.73
2022-08-17T01:28:55.142Z,18.74
2022-08-17T01:31:32.865Z,18.73
2022-08-17T01:34:12.268Z,18.73
2022-08-17T01:36:49.425Z,18.73
2022-08-17T01:39:26.174Z,18.71
2022-08-17T01:42:10.381Z,18.71
2022-08-17T01:44:48.923Z,18.71
2022-08-17T01:47:40.594Z,18.71
2022-08-17T01:50:18.840Z,18.70
2022-08-17T01:52:58.325Z,18.70
2022-08-17T01:55:31.459Z,18.72
2022-08-17T01:58:10.560Z,18.75
2022-08-17T02:01:09.741Z,18.78
2022-08-17T02:03:39.931Z,18.78
2022-08-17T02:06:45.146Z,18.75
2022-08-17T02:09:23.277Z,18.72
2022-08-17T02:11:58.015Z,18.73
2022-08-17T02:14:35.489Z,18.74
2022-08-17T02:17:02.488Z,18.74
2022-08-17T02:19:40.239Z,18.75
2022-08-17T02:22:14.352Z,18.77
2022-08-17T02:25:06.602Z,18.79
2022-08-17T02:27:41.751Z,18.76
2022-08-17T02:30:59.330Z,18.74
2022-08-17T02:33:56.912Z,18.72
2022-08-17T02:36:40.046Z,18.73
2022-08-17T02:39:17.629Z,18.77
2022-08-17T02:41:48.349Z,18.76
2022-08-17T02:44:39.010Z,18.74
2022-08-17T02:47:14.307Z,18.67
2022-08-17T02:54:39.653Z,18.58
2022-08-17T02:57:24.069Z,18.55
2022-08-17T02:59:59.089Z,18.53
2022-08-17T03:02:28.047Z,18.51
2022-08-17T03:05:06.598Z,18.50
2022-08-17T03:07:34.887Z,18.47
2022-08-17T03:10:11.827Z,18.42
2022-08-17T03:12:46.930Z,18.42
2022-08-17T03:15:25.609Z,18.43
2022-08-17T03:17:53.965Z,18.43
2022-08-17T03:20:31.308Z,18.42
2022-08-17T03:23:24.283Z,18.43
2022-08-17T03:25:53.807Z,18.42
2022-08-17T03:28:23.756Z,18.39
2022-08-17T03:30:50.942Z,18.35
2022-08-17T03:33:18.237Z,18.32
2022-08-17T03:35:46.659Z,18.28
2022-08-17T03:38:15.167Z,18.26
2022-08-17T03:40:57.509Z,18.25
2022-08-17T03:43:31.693Z,18.25
2022-08-17T03:47:11.510Z,18.25
2022-08-17T03:49:39.103Z,18.29
2022-08-17T04:03:39.917Z,18.47
2022-08-17T04:06:09.478Z,18.51
2022-08-17T04:08:38.835Z,18.57
2022-08-17T04:11:05.519Z,18.80
2022-08-17T04:13:46.936Z,19.15
2022-08-17T04:16:49.995Z,19.66
2022-08-17T04:19:17.048Z,20.08
2022-08-17T04:22:30.353Z,20.47
2022-08-17T04:25:29.161Z,20.89
2022-08-17T04:32:10.846Z,21.72
2022-08-17T04:35:02.801Z,22.12
2022-08-17T04:37:46.001Z,22.41
2022-08-17T04:43:51.576Z,22.73
2022-08-17T04:48:38.658Z,23.23
2022-08-17T04:51:30.979Z,23.47
2022-08-17T04:54:23.858Z,23.71
2022-08-17T04:56:58.773Z,23.90
2022-08-17T04:59:49.300Z,24.02
2022-08-17T05:11:38.562Z,24.79
2022-08-17T05:13:31.179Z,24.92
2022-08-17T05:13:42.522Z,24.52
2022-08-17T05:16:13.781Z,25.02
2022-08-17T05:19:15.357Z,25.08
2022-08-17T05:25:51.790Z,25.24
2022-08-17T05:28:27.518Z,25.38
2022-08-17T05:40:58.827Z,25.42
2022-08-17T05:43:38.249Z,25.55
2022-08-17T05:46:21.161Z,25.68
2022-08-17T05:49:01.355Z,25.89
2022-08-17T05:51:55.163Z,26.15
2022-08-17T05:54:53.219Z,26.41
2022-08-17T05:57:43.346Z,26.55
2022-08-17T06:00:45.907Z,26.69
2022-08-17T06:09:37.697Z,26.53
2022-08-17T06:18:41.711Z,25.52
2022-08-17T06:21:11.182Z,25.29
2022-08-17T06:23:50.713Z,25.17
2022-08-17T06:26:37.284Z,25.09
2022-08-17T06:29:50.780Z,25.04
2022-08-17T06:33:06.572Z,24.77
2022-08-17T06:35:41.914Z,24.42
2022-08-17T06:38:37.593Z,24.31
2022-08-17T06:41:07.796Z,24.34
2022-08-17T06:43:46.224Z,24.38
2022-08-17T06:46:27.537Z,24.38
2022-08-17T06:49:07.675Z,24.43
2022-08-17T06:51:37.738Z,24.55
2022-08-17T06:54:11.973Z,24.66
2022-08-17T06:56:53.795Z,24.76
2022-08-17T06:59:25.676Z,24.86
2022-08-17T07:01:55.868Z,24.95
2022-08-17T07:04:34.112Z,25.02
2022-08-17T07:07:29.375Z,25.12
2022-08-17T07:10:02.295Z,25.23
2022-08-17T07:12:41.035Z,25.31
2022-08-17T07:15:19.816Z,25.42
2022-08-17T07:17:48.552Z,25.52
2022-08-17T07:20:20.029Z,25.60
2022-08-17T07:22:53.599Z,25.71
2022-08-17T07:25:30.075Z,25.84
2022-08-17T07:28:00.399Z,25.93
2022-08-17T07:30:47.238Z,25.98
2022-08-17T07:33:19.355Z,26.01
2022-08-17T07:35:49.582Z,26.07
2022-08-17T07:38:25.648Z,26.08
2022-08-17T07:41:03.332Z,26.10
2022-08-17T07:43:38.951Z,26.01
2022-08-17T07:46:43.829Z,26.01
2022-08-17T07:49:10.596Z,26.14
2022-08-17T07:51:37.340Z,26.27
2022-08-17T07:54:24.230Z,26.36
2022-08-17T07:57:04.204Z,26.39
2022-08-17T07:59:33.846Z,26.45
2022-08-17T08:02:04.131Z,26.54
2022-08-17T08:07:30.381Z,26.69
2022-08-17T08:16:33.160Z,26.93
2022-08-17T08:19:01.140Z,27.07
2022-08-17T08:21:50.800Z,27.20
2022-08-17T08:24:41.111Z,27.30
2022-08-17T08:27:15.384Z,27.41
2022-08-17T08:30:04.522Z,27.42
2022-08-17T08:33:13.080Z,27.43
2022-08-17T08:35:53.510Z,27.35
2022-08-17T08:38:22.138Z,27.29
2022-08-17T08:41:00.135Z,27.27
2022-08-17T08:43:35.795Z,27.28
2022-08-17T08:46:19.689Z,27.38
2022-08-17T08:48:58.050Z,27.54
2022-08-17T08:51:44.733Z,27.70
2022-08-17T08:54:35.202Z,27.80
2022-08-17T08:57:25.691Z,27.88
2022-08-17T09:00:01.545Z,27.96
2022-08-17T09:02:34.797Z,27.97
2022-08-17T09:05:27.998Z,28.03
2022-08-17T09:08:13.300Z,28.09
2022-08-17T09:10:58.981Z,28.17
2022-08-17T09:13:43.775Z,28.25
2022-08-17T09:16:16.445Z,28.33
2022-08-17T09:18:59.793Z,28.42
2022-08-17T09:21:49.124Z,28.44
2022-08-17T09:24:20.683Z,28.24
2022-08-17T09:26:54.959Z,28.02
2022-08-17T09:29:25.803Z,27.93
2022-08-17T09:31:57.190Z,28.00
2022-08-17T09:34:32.223Z,28.15
2022-08-17T09:37:10.795Z,28.29
2022-08-17T09:39:54.907Z,28.27
2022-08-17T09:42:37.313Z,28.09
2022-08-17T09:45:03.832Z,28.12
2022-08-17T09:47:34.377Z,28.26
2022-08-17T09:50:19.622Z,28.41
2022-08-17T09:53:06.738Z,28.56
2022-08-17T09:55:47.465Z,28.70
2022-08-17T09:58:16.993Z,28.83
2022-08-17T10:00:47.377Z,28.94
2022-08-17T10:03:20.035Z,28.98
2022-08-17T10:06:09.435Z,28.95
2022-08-17T10:08:39.015Z,28.92
2022-08-17T10:11:51.485Z,28.97
2022-08-17T10:14:37.502Z,29.10
2022-08-17T10:17:21.060Z,29.27
2022-08-17T10:19:47.533Z,29.44
2022-08-17T10:22:49.873Z,29.51
2022-08-17T10:25:54.001Z,29.58
2022-08-17T10:28:29.835Z,29.40
2022-08-17T10:31:23.284Z,29.21
2022-08-17T10:33:56.895Z,29.17
2022-08-17T10:36:33.928Z,29.33
2022-08-17T10:39:19.206Z,29.46
2022-08-17T10:41:49.768Z,29.57
2022-08-17T10:44:38.829Z,29.69
2022-08-17T10:47:07.084Z,29.84
2022-08-17T10:49:46.991Z,29.85
2022-08-17T10:52:19.505Z,29.77
2022-08-17T10:54:58.263Z,29.81
2022-08-17T10:57:26.176Z,29.98
2022-08-17T10:59:53.711Z,30.15
2022-08-17T11:02:21.476Z,30.26
2022-08-17T11:04:54.951Z,30.18
2022-08-17T11:07:43.244Z,30.17
2022-08-17T11:10:19.026Z,30.28
2022-08-17T11:13:02.001Z,30.33
2022-08-17T11:15:44.584Z,30.28
2022-08-17T11:18:32.622Z,30.22
2022-08-17T11:21:08.345Z,30.27
2022-08-17T11:23:53.471Z,30.27
2022-08-17T11:26:27.048Z,30.18
2022-08-17T11:28:58.269Z,30.10
2022-08-17T11:31:39.156Z,30.01
2022-08-17T11:34:17.006Z,30.13
2022-08-17T11:37:03.658Z,30.32
2022-08-17T11:39:30.089Z,30.50
2022-08-17T11:42:06.546Z,30.62
2022-08-17T11:44:42.585Z,30.78
2022-08-17T11:47:30.017Z,30.73
2022-08-17T11:50:14.780Z,30.69
2022-08-17T11:52:44.530Z,30.71
2022-08-17T11:55:39.582Z,30.55
2022-08-17T11:58:14.453Z,30.43
2022-08-17T12:00:44.019Z,30.61
2022-08-17T12:03:30.962Z,30.84
2022-08-17T12:06:20.547Z,31.11
2022-08-17T12:08:51.977Z,31.40
2022-08-17T12:11:55.507Z,31.55
2022-08-17T12:14:45.044Z,31.52
2022-08-17T12:17:13.435Z,31.57
2022-08-17T12:19:48.928Z,31.52
2022-08-17T12:22:24.735Z,31.53
2022-08-17T12:24:56.861Z,31.63
2022-08-17T12:27:43.155Z,31.75
2022-08-17T12:30:14.194Z,31.87
2022-08-17T12:32:47.584Z,31.77
2022-08-17T12:35:24.559Z,31.59
2022-08-17T12:37:57.005Z,31.51
2022-08-17T12:40:29.304Z,31.24
2022-08-17T12:42:57.489Z,31.18
2022-08-17T12:45:29.012Z,31.33
2022-08-17T12:47:59.751Z,31.53
2022-08-17T12:50:29.398Z,31.63
2022-08-17T12:53:01.675Z,31.52
2022-08-17T12:55:35.536Z,31.50
2022-08-17T12:58:08.121Z,31.46
2022-08-17T13:00:40.644Z,31.40
2022-08-17T13:03:21.471Z,31.49
2022-08-17T13:06:00.048Z,31.49
2022-08-17T13:08:26.442Z,31.56
2022-08-17T13:10:57.529Z,31.56
2022-08-17T13:13:28.546Z,31.64
2022-08-17T13:15:57.606Z,31.70
2022-08-17T13:18:33.159Z,31.69
2022-08-17T13:21:00.397Z,31.61
2022-08-17T13:23:28.607Z,31.65
2022-08-17T13:26:16.869Z,31.78
2022-08-17T13:28:48.042Z,31.81
2022-08-17T13:31:27.473Z,31.82
2022-08-17T13:34:14.598Z,31.90
2022-08-17T13:36:46.171Z,32.01
2022-08-17T13:39:28.876Z,32.03
2022-08-17T13:41:55.493Z,32.11
2022-08-17T13:44:38.682Z,32.19
2022-08-17T13:47:15.961Z,32.26
2022-08-17T13:49:49.040Z,32.44
2022-08-17T13:52:34.836Z,32.59
2022-08-17T13:55:04.580Z,32.64
2022-08-17T13:57:34.317Z,32.51
2022-08-17T14:00:15.525Z,32.40
2022-08-17T14:02:42.219Z,32.28
2022-08-17T14:05:08.780Z,32.22
2022-08-17T14:07:38.478Z,32.19
2022-08-17T14:10:13.190Z,32.20
2022-08-17T14:12:44.157Z,32.22
2022-08-17T14:15:21.846Z,32.26
2022-08-17T14:18:01.055Z,32.25
2022-08-17T14:20:27.649Z,32.30
2022-08-17T14:22:55.127Z,32.40
2022-08-17T14:25:23.876Z,32.44
2022-08-17T14:27:54.098Z,32.53
2022-08-17T14:30:26.927Z,32.58
2022-08-17T14:33:01.539Z,32.62
2022-08-17T14:35:28.989Z,32.66
2022-08-17T14:37:55.581Z,32.66
2022-08-17T14:40:27.504Z,32.66
2022-08-17T14:42:55.368Z,32.71
2022-08-17T14:45:36.313Z,32.68
2022-08-17T14:48:06.825Z,32.45
2022-08-17T14:50:35.279Z,32.36
2022-08-17T14:53:04.151Z,32.29
2022-08-17T14:55:31.932Z,32.18
2022-08-17T14:58:29.043Z,32.01
2022-08-17T15:01:00.721Z,31.90
2022-08-17T15:03:28.188Z,31.80
2022-08-17T15:05:54.834Z,31.70
2022-08-17T15:08:21.324Z,31.62
2022-08-17T15:10:54.478Z,31.63
2022-08-17T15:13:25.447Z,31.57
2022-08-17T15:15:52.523Z,31.66
2022-08-17T15:18:19.706Z,31.76
2022-08-17T15:20:49.436Z,31.76
2022-08-17T15:23:24.379Z,31.65
2022-08-17T15:25:52.102Z,31.50
2022-08-17T15:28:22.166Z,31.46
2022-08-17T15:30:49.631Z,31.43
2022-08-17T15:33:17.622Z,31.46
2022-08-17T15:35:48.926Z,31.54
2022-08-17T15:38:20.224Z,31.59
2022-08-17T15:40:49.573Z,31.59
2022-08-17T15:43:22.020Z,31.60
2022-08-17T15:46:02.585Z,31.56
2022-08-17T15:48:40.904Z,31.56
2022-08-17T15:51:11.679Z,31.48
2022-08-17T15:53:39.091Z,31.41
2022-08-17T15:56:08.759Z,31.41
2022-08-17T15:58:36.109Z,31.48
2022-08-17T16:01:16.570Z,31.54
2022-08-17T16:04:01.402Z,31.62
2022-08-17T16:06:31.710Z,31.69
2022-08-17T16:08:59.753Z,31.75
2022-08-17T16:11:26.338Z,31.77
2022-08-17T16:13:54.680Z,31.78
2022-08-17T16:16:23.046Z,31.81
2022-08-17T16:18:53.523Z,31.84
2022-08-17T16:21:26.333Z,31.86
2022-08-17T16:23:55.912Z,31.88
2022-08-17T16:26:23.077Z,31.93
2022-08-17T16:28:50.010Z,31.97
2022-08-17T16:31:16.631Z,31.99
2022-08-17T16:34:15.954Z,32.01
2022-08-17T16:36:31.231Z,31.96
2022-08-17T16:38:57.612Z,31.93
2022-08-17T16:41:39.393Z,31.89
2022-08-17T16:44:05.863Z,31.87
2022-08-17T16:46:32.913Z,31.85
2022-08-17T16:49:02.222Z,31.80
2022-08-17T16:51:28.823Z,31.71
2022-08-17T16:53:59.143Z,31.59
2022-08-17T16:56:26.155Z,31.51
2022-08-17T16:58:53.354Z,31.41
2022-08-17T17:01:20.850Z,31.31
2022-08-17T17:03:51.048Z,31.23
2022-08-17T17:06:22.476Z,31.16
2022-08-17T17:08:51.534Z,31.06
2022-08-17T17:11:22.677Z,30.94
2022-08-17T17:13:53.720Z,30.83
2022-08-17T17:16:40.646Z,30.72
2022-08-17T17:19:19.546Z,30.59
2022-08-17T17:22:02.150Z,30.47
2022-08-17T17:24:34.539Z,30.35
2022-08-17T17:27:07.113Z,30.25
2022-08-17T17:29:48.642Z,30.17
2022-08-17T17:32:20.352Z,30.08
2022-08-17T17:34:52.701Z,30.00
2022-08-17T17:37:23.981Z,29.89
2022-08-17T17:39:52.318Z,29.74
2022-08-17T17:42:21.430Z,29.56
2022-08-17T17:44:50.571Z,29.36
2022-08-17T17:47:17.995Z,29.18
2022-08-17T17:49:45.921Z,29.05
2022-08-17T17:52:31.269Z,28.92
2022-08-17T17:55:03.990Z,28.76
2022-08-17T17:57:36.453Z,28.63
2022-08-17T18:00:11.135Z,28.49
2022-08-17T18:02:46.543Z,28.39
2022-08-17T18:05:18.264Z,28.26
2022-08-17T18:08:07.351Z,28.12
2022-08-17T18:10:40.682Z,28.00
2022-08-17T18:13:10.388Z,27.90
2022-08-17T18:15:50.475Z,27.83
2022-08-17T18:18:16.946Z,27.74
2022-08-17T18:20:56.114Z,27.66
2022-08-17T18:23:27.892Z,27.59
2022-08-17T18:25:55.968Z,27.51
2022-08-17T18:28:25.238Z,27.44
2022-08-17T18:31:10.622Z,27.34
2022-08-17T18:33:38.740Z,27.25
2022-08-17T18:36:05.854Z,27.17
2022-08-17T18:38:33.375Z,27.08
2022-08-17T18:41:04.737Z,27.00
2022-08-17T18:43:44.400Z,26.93
2022-08-17T18:46:29.051Z,26.84
2022-08-17T18:48:59.548Z,26.74
2022-08-17T18:51:41.577Z,26.67
2022-08-17T18:54:22.908Z,26.58
2022-08-17T18:56:49.423Z,26.49
2022-08-17T18:59:16.295Z,26.41
2022-08-17T19:02:27.317Z,26.33
2022-08-17T19:05:02.445Z,26.26
2022-08-17T19:07:38.016Z,26.18
2022-08-17T19:10:23.324Z,26.11
2022-08-17T19:12:49.746Z,26.02
2022-08-17T19:15:18.542Z,25.96
2022-08-17T19:17:47.673Z,25.90
2022-08-17T19:20:14.471Z,25.85
2022-08-17T19:22:49.215Z,25.80
2022-08-17T19:25:22.407Z,25.75
2022-08-17T19:27:57.338Z,25.70
2022-08-17T19:30:24.591Z,25.67
2022-08-17T19:32:52.425Z,25.64
2022-08-17T19:35:19.678Z,25.61
2022-08-17T19:37:55.885Z,25.55
2022-08-17T19:40:48.975Z,25.48
2022-08-17T19:43:16.195Z,25.43
2022-08-17T19:45:48.781Z,25.36
2022-08-17T19:48:21.323Z,25.30
2022-08-17T19:51:07.385Z,25.26
2022-08-17T19:54:07.734Z,25.23
2022-08-17T19:56:57.980Z,25.19
2022-08-17T19:59:52.416Z,25.18
2022-08-17T20:02:18.889Z,25.15
2022-08-17T20:04:55.743Z,25.12
2022-08-17T20:07:30.304Z,25.10
2022-08-17T20:10:06.125Z,25.04
2022-08-17T20:12:34.820Z,25.00
2022-08-17T20:15:24.626Z,24.96
2022-08-17T20:17:51.767Z,24.93
2022-08-17T20:20:27.760Z,24.94
2022-08-17T20:23:08.917Z,24.95
2022-08-17T20:25:46.231Z,24.96
2022-08-17T20:28:15.960Z,24.95
2022-08-17T20:30:43.192Z,24.92
2022-08-17T20:33:28.339Z,24.91
2022-08-17T20:36:13.625Z,24.89
2022-08-17T20:38:43.241Z,24.86
2022-08-17T20:41:20.281Z,24.82
2022-08-17T20:43:52.978Z,24.77
2022-08-17T20:46:26.251Z,24.73
2022-08-17T20:48:55.784Z,24.70
2022-08-17T20:51:34.193Z,24.68
2022-08-17T20:54:06.238Z,24.67
2022-08-17T20:56:42.506Z,24.66
2022-08-17T20:59:30.853Z,24.66
2022-08-17T21:02:12.380Z,24.67
2022-08-17T21:04:52.716Z,24.64
2022-08-17T21:07:33.080Z,24.61
2022-08-17T21:10:10.178Z,24.60
2022-08-17T21:12:47.462Z,24.60
2022-08-17T21:15:27.924Z,24.55
2022-08-17T21:17:58.595Z,24.53
2022-08-17T21:20:34.072Z,24.51
2022-08-17T21:23:17.402Z,24.48
2022-08-17T21:25:45.792Z,24.46
2022-08-17T21:28:36.409Z,24.45
2022-08-17T21:31:28.629Z,24.42
2022-08-17T21:34:14.902Z,24.40
2022-08-17T21:36:45.193Z,24.37
2022-08-17T21:39:16.442Z,24.34
2022-08-17T21:41:52.269Z,24.30
2022-08-17T21:44:18.750Z,24.27
2022-08-17T21:46:46.940Z,24.23
2022-08-17T21:49:16.197Z,24.19
2022-08-17T21:51:56.058Z,24.14
2022-08-17T21:54:26.983Z,24.10
2022-08-17T21:56:57.603Z,24.06
2022-08-17T21:59:26.912Z,24.03
2022-08-17T22:01:56.963Z,24.00
2022-08-17T22:04:29.774Z,23.95
2022-08-17T22:06:57.880Z,23.88
2022-08-17T22:09:35.165Z,23.82
2022-08-17T22:12:05.072Z,23.78
2022-08-17T22:14:52.247Z,23.74
2022-08-17T22:17:26.637Z,23.70
2022-08-17T22:19:53.189Z,23.67
2022-08-17T22:22:25.830Z,23.64
2022-08-17T22:24:57.595Z,23.62
2022-08-17T22:27:45.649Z,23.60
2022-08-17T22:30:24.759Z,23.57
2022-08-17T22:32:53.518Z,23.53
2022-08-17T22:35:28.787Z,23.49
2022-08-17T22:37:55.922Z,23.44
2022-08-17T22:40:30.644Z,23.38
2022-08-17T22:42:58.211Z,23.33
2022-08-17T22:45:26.348Z,23.27
2022-08-17T22:47:54.918Z,23.22
2022-08-17T22:50:23.652Z,23.19
2022-08-17T22:53:14.723Z,23.15
2022-08-17T22:56:20.075Z,23.10
2022-08-17T22:59:25.329Z,23.07
2022-08-17T23:02:11.867Z,23.04
2022-08-17T23:04:40.596Z,23.00
2022-08-17T23:07:07.080Z,23.00
2022-08-17T23:09:33.979Z,23.00
2022-08-17T23:12:00.958Z,23.01
2022-08-17T23:14:31.260Z,23.01
2022-08-17T23:17:01.335Z,23.00
2022-08-17T23:19:31.058Z,22.98
2022-08-17T23:21:58.857Z,22.97
2022-08-17T23:24:27.635Z,22.94
2022-08-17T23:26:56.612Z,22.93
2022-08-17T23:29:33.099Z,22.93
2022-08-17T23:32:00.723Z,22.93
2022-08-17T23:34:27.970Z,22.90
2022-08-17T23:36:54.939Z,22.87
2022-08-17T23:39:24.390Z,22.85
2022-08-17T23:41:53.059Z,22.83
2022-08-17T23:44:22.830Z,22.80
2022-08-17T23:46:50.762Z,22.77
2022-08-17T23:49:19.080Z,22.75
2022-08-17T23:51:47.240Z,22.74
2022-08-17T23:54:34.904Z,22.72
2022-08-17T23:57:03.468Z,22.70
2022-08-17T23:59:30.202Z,22.67
